createdAt,value
2023-05-01T00:00:30.714Z,99784.58
2023-05-01T00:02:58.438Z,99789.09
2023-05-01T00:05:26.191Z,99794.33
2023-05-01T00:07:54.696Z,99793.32
2023-05-01T00:10:22.142Z,99790.23
2023-05-01T00:12:49.509Z,99792.80
2023-05-01T00:15:17.681Z,99788.16
2023-05-01T00:17:45.221Z,99793.14
2023-05-01T00:20:13.144Z,99798.19
2023-05-01T00:22:40.462Z,99795.80
2023-05-01T00:25:08.555Z,99799.66
2023-05-01T00:27:35.946Z,99801.35
2023-05-01T00:30:04.047Z,99804.55
2023-05-01T00:32:31.492Z,99804.25
2023-05-01T00:34:58.888Z,99808.06
2023-05-01T00:37:26.328Z,99806.30
2023-05-01T00:39:53.975Z,99806.73
2023-05-01T00:42:22.110Z,99805.02
2023-05-01T00:44:49.442Z,99806.43
2023-05-01T00:47:16.838Z,99805.93
2023-05-01T00:49:44.380Z,99810.77
2023-05-01T00:52:12.021Z,99814.52
2023-05-01T00:54:39.681Z,99817.80
2023-05-01T00:57:10.081Z,99819.45
2023-05-01T00:59:37.620Z,99820.38
2023-05-01T01:02:05.208Z,99824.70
2023-05-01T01:04:33.951Z,99829.51
2023-05-01T01:07:09.597Z,99835.23
2023-05-01T01:09:48.028Z,99844.96
2023-05-01T01:12:25.383Z,99852.33
2023-05-01T01:14:56.251Z,99854.27
2023-05-01T01:17:53.547Z,99854.23
2023-05-01T01:20:26.078Z,99848.94
2023-05-01T01:23:13.903Z,99852.55
2023-05-01T01:25:41.391Z,99844.00
2023-05-01T01:28:21.617Z,99836.88
2023-05-01T01:31:02.206Z,99838.30
2023-05-01T01:33:32.706Z,99835.37
2023-05-01T01:36:02.995Z,99833.15
2023-05-01T01:38:50.707Z,99832.24
2023-05-01T01:41:22.881Z,99834.59
2023-05-01T01:43:53.875Z,99830.80
2023-05-01T01:46:21.302Z,99828.89
2023-05-01T01:48:49.544Z,99831.31
2023-05-01T01:51:17.645Z,99825.34
2023-05-01T01:53:46.549Z,99822.28
2023-05-01T01:56:13.941Z,99823.82
2023-05-01T01:58:41.530Z,99826.17
2023-05-01T02:01:08.992Z,99827.95
2023-05-01T02:03:36.598Z,99834.59
2023-05-01T02:06:04.428Z,99839.59
2023-05-01T02:08:31.918Z,99835.98
2023-05-01T02:11:02.062Z,99838.15
2023-05-01T02:13:30.276Z,99840.80
2023-05-01T02:16:01.274Z,99843.55
2023-05-01T02:18:30.621Z,99844.71
2023-05-01T02:20:59.245Z,99848.27
2023-05-01T02:23:27.758Z,99850.71
2023-05-01T02:25:55.107Z,99855.58
2023-05-01T02:28:23.830Z,99860.46
2023-05-01T02:30:51.389Z,99859.79
2023-05-01T02:33:18.725Z,99863.77
2023-05-01T02:35:47.939Z,99868.98
2023-05-01T02:38:16.626Z,99864.20
2023-05-01T02:40:47.829Z,99865.21
2023-05-01T02:43:16.106Z,99864.35
2023-05-01T02:45:44.291Z,99866.65
2023-05-01T02:48:12.960Z,99865.86
2023-05-01T02:50:43.186Z,99872.77
2023-05-01T02:53:10.604Z,99874.75
2023-05-01T02:55:44.553Z,99878.12
2023-05-01T02:58:15.676Z,99881.16
2023-05-01T03:00:43.468Z,99886.19
2023-05-01T03:03:11.093Z,99887.92
2023-05-01T03:05:42.222Z,99890.88
2023-05-01T03:08:10.973Z,99901.42
2023-05-01T03:10:40.280Z,99905.65
2023-05-01T03:13:07.602Z,99907.64
2023-05-01T03:15:34.945Z,99906.55
2023-05-01T03:18:02.528Z,99905.48
2023-05-01T03:20:30.555Z,99904.54
2023-05-01T03:22:58.084Z,99903.96
2023-05-01T03:25:25.903Z,99909.27
2023-05-01T03:27:55.071Z,99909.76
2023-05-01T03:30:23.385Z,99913.98
2023-05-01T03:32:52.563Z,99909.17
2023-05-01T03:35:24.343Z,99910.45
2023-05-01T03:37:51.862Z,99908.67
2023-05-01T03:40:38.080Z,99916.34
2023-05-01T03:43:25.485Z,99917.66
2023-05-01T03:45:53.410Z,99922.19
2023-05-01T03:48:21.249Z,99926.98
2023-05-01T03:50:48.646Z,99924.14
2023-05-01T03:53:17.079Z,99929.38
2023-05-01T03:55:44.480Z,99930.80
2023-05-01T03:58:13.346Z,99929.58
2023-05-01T04:01:01.326Z,99934.77
2023-05-01T04:03:29.423Z,99938.16
2023-05-01T04:05:57.424Z,99935.20
2023-05-01T04:08:24.768Z,99938.27
2023-05-01T04:10:52.182Z,99944.11
2023-05-01T04:13:19.596Z,99943.73
2023-05-01T04:15:47.253Z,99946.27
2023-05-01T04:18:15.652Z,99947.36
2023-05-01T04:20:43.204Z,99948.16
2023-05-01T04:23:10.792Z,99950.19
2023-05-01T04:25:38.678Z,99950.31
2023-05-01T04:28:11.472Z,99954.34
2023-05-01T04:30:38.888Z,99953.31
2023-05-01T04:33:11.990Z,99959.08
2023-05-01T04:35:40.688Z,99961.75
2023-05-01T04:38:08.490Z,99960.60
2023-05-01T04:40:36.281Z,99968.88
2023-05-01T04:43:03.706Z,99971.52
2023-05-01T04:45:31.072Z,99972.53
2023-05-01T04:47:59.329Z,99975.09
2023-05-01T04:50:27.310Z,99976.31
2023-05-01T04:52:54.705Z,99986.56
2023-05-01T04:55:22.171Z,99988.60
2023-05-01T04:58:05.844Z,99998.92
2023-05-01T05:00:34.465Z,99992.52
2023-05-01T05:03:02.459Z,99999.00
2023-05-01T05:05:30.159Z,100006.17
2023-05-01T05:07:58.644Z,100006.30
2023-05-01T05:10:30.944Z,100008.25
2023-05-01T05:13:11.370Z,100009.48
2023-05-01T05:15:39.212Z,100012.98
2023-05-01T05:18:07.687Z,100018.89
2023-05-01T05:20:38.369Z,100023.48
2023-05-01T05:23:07.308Z,100021.09
2023-05-01T05:25:35.665Z,100025.65
2023-05-01T05:28:03.033Z,100031.80
2023-05-01T05:30:30.438Z,100033.93
2023-05-01T05:32:58.386Z,100028.98
2023-05-01T05:35:26.050Z,100035.08
2023-05-01T05:37:53.670Z,100042.32
2023-05-01T05:40:21.395Z,100047.26
2023-05-01T05:42:54.916Z,100044.48
2023-05-01T05:45:23.920Z,100045.80
2023-05-01T05:47:52.155Z,100047.35
2023-05-01T05:50:19.796Z,100046.61
2023-05-01T05:52:47.356Z,100059.51
2023-05-01T05:55:14.865Z,100061.03
2023-05-01T05:57:46.274Z,100061.68
2023-05-01T06:00:14.750Z,100063.63
2023-05-01T06:02:44.092Z,100072.80
2023-05-01T06:05:12.057Z,100076.95
2023-05-01T06:07:40.182Z,100078.84
2023-05-01T06:10:07.940Z,100081.44
2023-05-01T06:12:37.436Z,100085.65
2023-05-01T06:15:06.979Z,100091.62
2023-05-01T06:17:36.609Z,100093.35
2023-05-01T06:20:06.588Z,100101.98
2023-05-01T06:22:34.000Z,100107.05
2023-05-01T06:25:08.385Z,100112.41
2023-05-01T06:27:36.260Z,100114.96
2023-05-01T06:30:03.799Z,100117.46
2023-05-01T06:32:33.504Z,100123.13
2023-05-01T06:35:00.945Z,100126.00
2023-05-01T06:37:28.349Z,100126.02
2023-05-01T06:39:56.522Z,100123.19
2023-05-01T06:42:24.280Z,100118.35
2023-05-01T06:44:51.648Z,100117.33
2023-05-01T06:47:19.159Z,100123.27
2023-05-01T06:49:46.774Z,100124.70
2023-05-01T06:52:14.140Z,100123.70
2023-05-01T06:54:42.263Z,100123.98
2023-05-01T06:57:09.791Z,100126.77
2023-05-01T06:59:37.243Z,100125.71
2023-05-01T07:02:04.819Z,100125.63
2023-05-01T07:04:32.369Z,100124.97
2023-05-01T07:06:59.751Z,100137.42
2023-05-01T07:09:27.205Z,100138.57
2023-05-01T07:11:57.920Z,100157.75
2023-05-01T07:14:25.363Z,100153.19
2023-05-01T07:16:52.721Z,100160.77
2023-05-01T07:19:20.655Z,100156.41
2023-05-01T07:21:48.014Z,100167.19
2023-05-01T07:24:15.390Z,100164.70
2023-05-01T07:26:42.870Z,100169.58
2023-05-01T07:29:10.232Z,100169.04
2023-05-01T07:31:39.574Z,100168.04
2023-05-01T07:34:07.213Z,100174.73
2023-05-01T07:36:34.868Z,100181.33
2023-05-01T07:39:02.264Z,100182.96
2023-05-01T07:41:29.792Z,100185.66
2023-05-01T07:43:59.239Z,100182.08
2023-05-01T07:46:27.510Z,100188.83
2023-05-01T07:48:55.247Z,100181.71
2023-05-01T07:51:22.689Z,100190.81
2023-05-01T07:53:50.567Z,100190.79
2023-05-01T07:56:18.083Z,100198.92
2023-05-01T07:58:45.342Z,100197.16
2023-05-01T08:01:12.795Z,100197.11
2023-05-01T08:03:40.455Z,100200.61
2023-05-01T08:06:08.043Z,100193.58
2023-05-01T08:08:35.528Z,100201.18
2023-05-01T08:11:03.301Z,100205.66
2023-05-01T08:13:30.692Z,100208.11
2023-05-01T08:16:01.234Z,100207.69
2023-05-01T08:18:29.050Z,100216.23
2023-05-01T08:20:56.488Z,100211.90
2023-05-01T08:23:25.657Z,100222.75
2023-05-01T08:25:53.324Z,100225.47
2023-05-01T08:28:23.577Z,100222.02
2023-05-01T08:30:51.027Z,100223.48
2023-05-01T08:33:19.092Z,100226.85
2023-05-01T08:35:46.447Z,100225.20
2023-05-01T08:38:13.839Z,100222.01
2023-05-01T08:40:41.416Z,100224.73
2023-05-01T08:43:08.937Z,100218.27
2023-05-01T08:45:38.095Z,100219.85
2023-05-01T08:48:06.161Z,100222.23
2023-05-01T08:50:39.547Z,100240.21
2023-05-01T08:53:07.485Z,100236.70
2023-05-01T08:55:35.528Z,100227.84
2023-05-01T08:58:03.754Z,100232.91
2023-05-01T09:00:31.796Z,100225.98
2023-05-01T09:03:00.055Z,100252.19
2023-05-01T09:05:27.540Z,100248.27
2023-05-01T09:07:55.109Z,100254.84
2023-05-01T09:10:22.683Z,100243.45
2023-05-01T09:12:52.261Z,100247.59
2023-05-01T09:15:19.653Z,100254.25
2023-05-01T09:17:47.239Z,100247.27
2023-05-01T09:20:14.962Z,100248.63
2023-05-01T09:22:42.335Z,100258.42
2023-05-01T09:25:11.276Z,100258.58
2023-05-01T09:27:38.620Z,100262.11
2023-05-01T09:30:07.372Z,100262.33
2023-05-01T09:32:34.869Z,100264.60
2023-05-01T09:35:12.566Z,100265.07
2023-05-01T09:37:40.036Z,100266.23
2023-05-01T09:40:07.925Z,100267.80
2023-05-01T09:42:36.635Z,100269.26
2023-05-01T09:45:05.204Z,100267.23
2023-05-01T09:47:34.628Z,100266.34
2023-05-01T09:50:02.271Z,100272.84
2023-05-01T09:52:30.191Z,100280.71
2023-05-01T09:55:16.792Z,100278.86
2023-05-01T09:57:44.539Z,100289.09
2023-05-01T10:00:15.859Z,100278.63
2023-05-01T10:02:47.295Z,100279.42
2023-05-01T10:05:15.088Z,100286.27
2023-05-01T10:08:03.968Z,100283.62
2023-05-01T10:10:31.790Z,100293.31
2023-05-01T10:13:13.682Z,100286.74
2023-05-01T10:15:41.162Z,100280.47
2023-05-01T10:18:10.454Z,100278.88
2023-05-01T10:20:38.842Z,100289.83
2023-05-01T10:23:06.331Z,100293.42
2023-05-01T10:25:34.357Z,100298.45
2023-05-01T10:28:04.355Z,100299.83
2023-05-01T10:30:31.887Z,100293.70
2023-05-01T10:32:59.752Z,100283.12
2023-05-01T10:35:32.796Z,100287.33
2023-05-01T10:38:01.614Z,100300.91
2023-05-01T10:40:41.589Z,100304.38
2023-05-01T10:43:21.740Z,100296.65
2023-05-01T10:45:49.628Z,100295.17
2023-05-01T10:48:36.782Z,100292.63
2023-05-01T10:51:11.832Z,100302.96
2023-05-01T10:53:42.774Z,100302.56
2023-05-01T10:56:25.569Z,100303.63
2023-05-01T10:58:53.043Z,100305.77
2023-05-01T11:01:34.455Z,100307.73
2023-05-01T11:04:08.814Z,100293.40
2023-05-01T11:06:37.178Z,100293.40
2023-05-01T11:09:24.900Z,100303.48
2023-05-01T11:11:52.307Z,100304.55
2023-05-01T11:14:19.796Z,100314.23
2023-05-01T11:16:47.546Z,100313.52
2023-05-01T11:19:21.172Z,100308.76
2023-05-01T11:21:48.872Z,100307.44
2023-05-01T11:24:17.980Z,100304.85
2023-05-01T11:26:45.497Z,100322.30
2023-05-01T11:29:12.843Z,100319.98
2023-05-01T11:31:40.344Z,100323.30
2023-05-01T11:34:07.866Z,100320.23
2023-05-01T11:36:55.507Z,100315.48
2023-05-01T11:39:23.203Z,100313.52
2023-05-01T11:41:50.824Z,100315.48
2023-05-01T11:44:18.771Z,100313.74
2023-05-01T11:46:46.535Z,100310.86
2023-05-01T11:49:15.070Z,100314.88
2023-05-01T11:51:42.501Z,100312.02
2023-05-01T11:54:12.200Z,100316.77
2023-05-01T11:56:43.697Z,100319.37
2023-05-01T11:59:12.487Z,100320.23
2023-05-01T12:01:41.300Z,100319.48
2023-05-01T12:04:09.091Z,100310.48
2023-05-01T12:06:54.897Z,100314.22
2023-05-01T12:09:23.519Z,100317.98
2023-05-01T12:11:54.320Z,100325.76
2023-05-01T12:14:22.091Z,100328.52
2023-05-01T12:16:49.837Z,100323.87
2023-05-01T12:19:18.050Z,100324.58
2023-05-01T12:21:45.385Z,100325.77
2023-05-01T12:24:15.649Z,100318.51
2023-05-01T12:26:43.633Z,100320.66
2023-05-01T12:29:11.723Z,100336.33
2023-05-01T12:31:48.728Z,100335.73
2023-05-01T12:34:16.315Z,100334.38
2023-05-01T12:36:46.725Z,100331.58
2023-05-01T12:39:14.113Z,100337.30
2023-05-01T12:41:42.312Z,100338.42
2023-05-01T12:44:19.647Z,100334.67
2023-05-01T12:46:53.123Z,100332.67
2023-05-01T12:49:20.962Z,100333.31
2023-05-01T12:51:48.785Z,100338.55
2023-05-01T12:54:27.589Z,100333.55
2023-05-01T12:57:04.821Z,100341.73
2023-05-01T12:59:32.210Z,100334.55
2023-05-01T13:02:11.321Z,100336.16
2023-05-01T13:04:39.083Z,100337.02
2023-05-01T13:07:12.914Z,100343.59
2023-05-01T13:09:40.974Z,100342.54
2023-05-01T13:12:10.171Z,100338.69
2023-05-01T13:14:40.822Z,100340.98
2023-05-01T13:17:09.488Z,100349.41
2023-05-01T13:19:37.346Z,100345.82
2023-05-01T13:22:05.326Z,100343.20
2023-05-01T13:24:39.728Z,100342.90
2023-05-01T13:27:11.373Z,100344.34
2023-05-01T13:29:39.185Z,100347.26
2023-05-01T13:32:07.182Z,100344.41
2023-05-01T13:34:34.976Z,100341.16
2023-05-01T13:37:02.583Z,100346.98
2023-05-01T13:39:30.036Z,100354.98
2023-05-01T13:41:57.580Z,100357.59
2023-05-01T13:44:24.914Z,100355.23
2023-05-01T13:46:52.450Z,100351.27
2023-05-01T13:49:22.282Z,100353.64
2023-05-01T13:51:49.738Z,100356.59
2023-05-01T13:54:17.150Z,100359.02
2023-05-01T13:56:44.749Z,100359.02
2023-05-01T13:59:12.060Z,100364.27
2023-05-01T14:01:42.009Z,100363.86
2023-05-01T14:04:11.097Z,100366.30
2023-05-01T14:06:42.405Z,100365.95
2023-05-01T14:09:09.768Z,100365.90
2023-05-01T14:11:47.344Z,100367.31
2023-05-01T14:14:18.100Z,100366.77
2023-05-01T14:16:49.315Z,100367.80
2023-05-01T14:19:18.620Z,100371.67
2023-05-01T14:21:47.218Z,100376.94
2023-05-01T14:24:15.059Z,100376.92
2023-05-01T14:26:43.645Z,100379.94
2023-05-01T14:29:25.644Z,100374.05
2023-05-01T14:31:53.240Z,100382.86
2023-05-01T14:34:20.627Z,100385.25
2023-05-01T14:36:48.069Z,100387.76
2023-05-01T14:39:16.280Z,100393.67
2023-05-01T14:41:43.688Z,100395.48
2023-05-01T14:44:11.783Z,100392.14
2023-05-01T14:46:40.861Z,100398.82
2023-05-01T14:49:08.254Z,100400.85
2023-05-01T14:51:35.712Z,100400.34
2023-05-01T14:54:04.649Z,100402.83
2023-05-01T14:56:32.032Z,100401.95
2023-05-01T14:59:01.315Z,100406.03
2023-05-01T15:01:28.799Z,100408.78
2023-05-01T15:03:56.320Z,100404.40
2023-05-01T15:06:25.328Z,100411.49
2023-05-01T15:08:52.731Z,100409.38
2023-05-01T15:11:21.260Z,100413.45
2023-05-01T15:13:51.437Z,100413.70
2023-05-01T15:16:19.027Z,100412.84
2023-05-01T15:18:46.491Z,100411.43
2023-05-01T15:21:14.056Z,100416.58
2023-05-01T15:23:45.455Z,100415.58
2023-05-01T15:26:12.963Z,100422.88
2023-05-01T15:28:40.372Z,100427.66
2023-05-01T15:31:07.938Z,100429.05
2023-05-01T15:33:35.324Z,100432.01
2023-05-01T15:36:03.087Z,100430.55
2023-05-01T15:38:30.735Z,100430.90
2023-05-01T15:40:58.273Z,100430.04
2023-05-01T15:43:25.662Z,100433.86
2023-05-01T15:45:53.206Z,100432.95
2023-05-01T15:48:20.841Z,100435.80
2023-05-01T15:50:49.095Z,100435.05
2023-05-01T15:53:17.528Z,100444.05
2023-05-01T15:55:45.172Z,100444.60
2023-05-01T15:58:12.850Z,100448.30
2023-05-01T16:00:40.299Z,100448.52
2023-05-01T16:03:08.954Z,100454.52
2023-05-01T16:05:37.218Z,100455.96
2023-05-01T16:08:05.728Z,100461.97
2023-05-01T16:10:37.506Z,100466.60
2023-05-01T16:13:06.828Z,100465.78
2023-05-01T16:15:34.366Z,100468.48
2023-05-01T16:18:04.179Z,100469.50
2023-05-01T16:20:35.458Z,100474.70
2023-05-01T16:23:02.791Z,100478.52
2023-05-01T16:25:30.248Z,100482.61
2023-05-01T16:27:57.814Z,100488.74
2023-05-01T16:30:28.254Z,100488.50
2023-05-01T16:32:55.685Z,100489.76
2023-05-01T16:35:23.880Z,100499.52
2023-05-01T16:37:51.532Z,100502.30
2023-05-01T16:40:19.074Z,100500.54
2023-05-01T16:42:56.617Z,100504.98
2023-05-01T16:45:24.351Z,100503.71
2023-05-01T16:47:51.910Z,100512.30
2023-05-01T16:50:20.070Z,100515.58
2023-05-01T16:52:47.617Z,100517.20
2023-05-01T16:55:15.163Z,100524.25
2023-05-01T16:57:44.220Z,100525.22
2023-05-01T17:00:12.281Z,100527.89
2023-05-01T17:02:39.642Z,100534.80
2023-05-01T17:05:07.442Z,100539.05
2023-05-01T17:07:34.928Z,100538.09
2023-05-01T17:10:02.593Z,100540.20
2023-05-01T17:12:30.551Z,100549.04
2023-05-01T17:14:57.895Z,100549.27
2023-05-01T17:17:25.553Z,100549.92
2023-05-01T17:19:53.225Z,100553.02
2023-05-01T17:22:20.942Z,100560.23
2023-05-01T17:24:48.609Z,100564.28
2023-05-01T17:27:18.620Z,100566.50
2023-05-01T17:29:47.016Z,100570.16
2023-05-01T17:32:20.192Z,100573.83
2023-05-01T17:34:57.226Z,100575.47
2023-05-01T17:37:24.995Z,100579.14
2023-05-01T17:39:52.442Z,100587.02
2023-05-01T17:42:20.048Z,100589.66
2023-05-01T17:44:47.504Z,100595.69
2023-05-01T17:47:15.734Z,100594.98
2023-05-01T17:49:43.232Z,100599.03
2023-05-01T17:52:10.649Z,100603.85
2023-05-01T17:54:38.917Z,100607.28
2023-05-01T17:57:08.687Z,100610.13
2023-05-01T17:59:36.922Z,100616.53
2023-05-01T18:02:04.514Z,100620.17
2023-05-01T18:04:32.143Z,100622.96
2023-05-01T18:07:00.978Z,100624.56
2023-05-01T18:09:28.545Z,100629.34
2023-05-01T18:11:56.178Z,100631.41
2023-05-01T18:14:23.634Z,100633.34
2023-05-01T18:16:53.059Z,100642.20
2023-05-01T18:19:20.695Z,100645.80
2023-05-01T18:21:48.278Z,100644.96
2023-05-01T18:24:15.915Z,100647.68
2023-05-01T18:26:43.584Z,100653.27
2023-05-01T18:29:11.120Z,100660.99
2023-05-01T18:31:38.778Z,100659.88
2023-05-01T18:34:07.682Z,100661.96
2023-05-01T18:36:36.927Z,100662.77
2023-05-01T18:39:05.157Z,100670.53
2023-05-01T18:41:34.560Z,100669.84
2023-05-01T18:44:03.020Z,100672.58
2023-05-01T18:46:30.775Z,100680.27
2023-05-01T18:48:58.440Z,100681.60
2023-05-01T18:51:26.038Z,100681.61
2023-05-01T18:53:53.440Z,100687.60
2023-05-01T18:56:21.383Z,100687.21
2023-05-01T18:58:49.205Z,100689.17
2023-05-01T19:01:16.902Z,100696.98
2023-05-01T19:03:44.416Z,100698.83
2023-05-01T19:06:12.040Z,100696.95
2023-05-01T19:08:39.860Z,100696.07
2023-05-01T19:11:07.399Z,100698.32
2023-05-01T19:13:34.768Z,100700.60
2023-05-01T19:16:02.299Z,100703.80
2023-05-01T19:18:29.871Z,100704.30
2023-05-01T19:20:57.206Z,100708.85
2023-05-01T19:23:24.641Z,100708.40
2023-05-01T19:25:52.194Z,100710.61
2023-05-01T19:28:19.823Z,100709.14
2023-05-01T19:30:47.593Z,100712.73
2023-05-01T19:33:15.232Z,100710.91
2023-05-01T19:35:42.845Z,100713.10
2023-05-01T19:38:10.453Z,100710.77
2023-05-01T19:40:40.036Z,100712.96
2023-05-01T19:43:07.595Z,100713.92
2023-05-01T19:45:35.424Z,100718.55
2023-05-01T19:48:03.245Z,100724.48
2023-05-01T19:50:32.939Z,100728.16
2023-05-01T19:53:01.080Z,100728.09
2023-05-01T19:55:28.919Z,100725.77
2023-05-01T19:57:56.481Z,100727.67
2023-05-01T20:00:24.094Z,100727.40
2023-05-01T20:02:52.196Z,100729.14
2023-05-01T20:05:20.365Z,100729.89
2023-05-01T20:07:48.092Z,100731.19
2023-05-01T20:10:17.293Z,100728.77
2023-05-01T20:12:44.799Z,100732.11
2023-05-01T20:15:12.430Z,100736.06
2023-05-01T20:17:39.790Z,100737.94
2023-05-01T20:20:07.619Z,100736.23
2023-05-01T20:22:35.112Z,100737.23
2023-05-01T20:25:02.804Z,100735.27
2023-05-01T20:27:30.060Z,100738.38
2023-05-01T20:29:58.059Z,100736.69
2023-05-01T20:32:25.757Z,100737.45
2023-05-01T20:34:55.829Z,100747.90
2023-05-01T20:37:23.750Z,100749.52
2023-05-01T20:39:51.158Z,100752.52
2023-05-01T20:42:18.357Z,100748.80
2023-05-01T20:44:46.093Z,100753.10
2023-05-01T20:47:14.704Z,100757.00
2023-05-01T20:49:42.229Z,100757.56
2023-05-01T20:52:09.959Z,100754.98
2023-05-01T20:54:37.586Z,100755.98
2023-05-01T20:57:05.781Z,100753.80
2023-05-01T20:59:33.283Z,100759.05
2023-05-01T21:02:03.699Z,100763.83
2023-05-01T21:04:31.187Z,100765.02
2023-05-01T21:06:58.919Z,100765.42
2023-05-01T21:09:26.307Z,100774.55
2023-05-01T21:11:53.550Z,100772.87
2023-05-01T21:14:21.068Z,100776.50
2023-05-01T21:16:48.436Z,100777.90
2023-05-01T21:19:15.825Z,100770.42
2023-05-01T21:21:43.339Z,100780.61
2023-05-01T21:24:12.392Z,100782.70
2023-05-01T21:26:39.788Z,100782.75
2023-05-01T21:29:07.247Z,100787.31
2023-05-01T21:31:35.754Z,100791.77
2023-05-01T21:34:03.433Z,100792.20
2023-05-01T21:36:31.807Z,100797.73
2023-05-01T21:39:00.829Z,100800.44
2023-05-01T21:41:28.212Z,100802.66
2023-05-01T21:43:55.790Z,100806.58
2023-05-01T21:46:23.203Z,100811.74
2023-05-01T21:48:51.899Z,100815.38
2023-05-01T21:51:19.852Z,100816.38
2023-05-01T21:53:47.938Z,100821.68
2023-05-01T21:56:15.742Z,100825.92
2023-05-01T21:58:43.190Z,100829.45
2023-05-01T22:01:13.001Z,100830.27
2023-05-01T22:03:41.947Z,100831.19
2023-05-01T22:06:09.676Z,100837.39
2023-05-01T22:08:37.617Z,100842.04
2023-05-01T22:11:06.480Z,100842.40
2023-05-01T22:13:35.263Z,100840.02
2023-05-01T22:16:02.814Z,100841.19
2023-05-01T22:18:30.699Z,100842.77
2023-05-01T22:20:59.671Z,100843.25
2023-05-01T22:23:27.381Z,100846.88
2023-05-01T22:26:00.441Z,100847.49
2023-05-01T22:28:28.281Z,100849.84
2023-05-01T22:30:55.693Z,100852.98
2023-05-01T22:33:23.165Z,100854.75
2023-05-01T22:35:50.681Z,100857.11
2023-05-01T22:38:18.132Z,100855.82
2023-05-01T22:40:45.618Z,100855.98
2023-05-01T22:43:13.087Z,100858.45
2023-05-01T22:45:40.481Z,100856.69
2023-05-01T22:48:07.875Z,100858.34
2023-05-01T22:50:35.380Z,100859.83
2023-05-01T22:53:03.040Z,100861.02
2023-05-01T22:55:30.456Z,100861.35
2023-05-01T22:57:57.867Z,100861.30
2023-05-01T23:00:25.431Z,100862.80
2023-05-01T23:02:52.838Z,100863.85
2023-05-01T23:05:20.373Z,100864.35
2023-05-01T23:07:48.352Z,100867.11
2023-05-01T23:10:15.769Z,100864.41
2023-05-01T23:12:44.202Z,100866.62
2023-05-01T23:15:14.033Z,100870.65
2023-05-01T23:17:41.442Z,100868.46
2023-05-01T23:20:10.064Z,100869.96
2023-05-01T23:22:38.736Z,100870.81
2023-05-01T23:25:08.075Z,100873.91
2023-05-01T23:27:37.359Z,100873.88
2023-05-01T23:30:06.282Z,100875.17
2023-05-01T23:32:34.155Z,100871.73
2023-05-01T23:35:03.375Z,100874.48
2023-05-01T23:37:30.981Z,100875.61
2023-05-01T23:40:00.215Z,100876.04
2023-05-01T23:42:28.527Z,100874.73
2023-05-01T23:44:56.378Z,100873.85
2023-05-01T23:47:23.904Z,100877.27
2023-05-01T23:49:51.903Z,100876.09
2023-05-01T23:52:19.468Z,100875.80
2023-05-01T23:54:46.808Z,100880.46
2023-05-01T23:57:14.385Z,100884.77
2023-05-01T23:59:42.059Z,100886.13
